createdAt,value
2018-06-10T00:00:36.430Z,99.99
2018-06-10T00:01:36.431Z,99.99
2018-06-10T00:02:36.432Z,99.99
2018-06-10T00:03:36.434Z,99.99
2018-06-10T00:04:36.436Z,99.99
2018-06-10T00:05:36.440Z,99.99
2018-06-10T00:06:36.439Z,99.99
2018-06-10T00:07:36.442Z,99.99
2018-06-10T00:08:36.444Z,99.99
2018-06-10T00:09:36.443Z,99.99
2018-06-10T00:10:36.995Z,99.99
2018-06-10T00:11:36.445Z,99.99
2018-06-10T00:12:36.446Z,99.99
2018-06-10T00:13:36.450Z,99.99
2018-06-10T00:14:36.449Z,99.99
2018-06-10T00:15:36.454Z,99.99
2018-06-10T00:16:36.453Z,99.99
2018-06-10T00:17:36.459Z,99.99
2018-06-10T00:18:36.454Z,99.99
2018-06-10T00:19:36.451Z,99.99
2018-06-10T00:20:36.454Z,99.99
2018-06-10T00:21:36.460Z,99.99
2018-06-10T00:22:36.456Z,99.99
2018-06-10T00:23:36.461Z,99.99
2018-06-10T00:24:36.463Z,99.99
2018-06-10T00:25:36.464Z,99.99
2018-06-10T00:26:36.464Z,99.99
2018-06-10T00:27:36.462Z,99.99
2018-06-10T00:28:36.468Z,99.99
2018-06-10T00:29:36.470Z,99.99
2018-06-10T00:30:36.466Z,99.99
2018-06-10T00:31:36.475Z,99.99
2018-06-10T00:32:36.469Z,99.99
2018-06-10T00:33:36.470Z,99.99
2018-06-10T00:34:36.477Z,99.99
2018-06-10T00:35:36.481Z,99.99
2018-06-10T00:36:36.473Z,99.99
2018-06-10T00:37:36.476Z,99.99
2018-06-10T00:38:36.478Z,99.99
2018-06-10T00:39:36.481Z,99.99
2018-06-10T00:40:36.483Z,99.99
2018-06-10T00:41:36.485Z,99.99
2018-06-10T00:42:36.485Z,99.99
2018-06-10T00:43:36.481Z,99.99
2018-06-10T00:44:36.492Z,99.99
2018-06-10T00:45:36.487Z,99.99
2018-06-10T00:46:36.489Z,99.99
2018-06-10T00:47:36.489Z,99.99
2018-06-10T00:48:36.493Z,99.99
2018-06-10T00:49:36.496Z,99.99
2018-06-10T00:50:36.497Z,99.99
2018-06-10T00:51:36.497Z,99.99
2018-06-10T00:52:36.496Z,99.99
2018-06-10T00:53:36.498Z,99.99
2018-06-10T00:54:36.499Z,99.99
2018-06-10T00:55:36.503Z,99.99
2018-06-10T00:56:36.503Z,99.99
2018-06-10T00:57:36.498Z,99.99
2018-06-10T00:58:36.505Z,99.99
2018-06-10T00:59:36.501Z,99.99
2018-06-10T01:00:36.508Z,99.99
2018-06-10T01:01:36.505Z,99.99
2018-06-10T01:02:36.509Z,99.99
2018-06-10T01:03:36.509Z,99.99
2018-06-10T01:04:36.507Z,99.99
2018-06-10T01:05:36.515Z,99.99
2018-06-10T01:06:36.511Z,99.99
2018-06-10T01:07:36.512Z,99.99
2018-06-10T01:08:36.515Z,99.99
2018-06-10T01:09:36.513Z,99.99
2018-06-10T01:10:36.518Z,99.99
2018-06-10T01:11:36.516Z,99.99
2018-06-10T01:12:36.519Z,99.99
2018-06-10T01:13:36.519Z,99.99
2018-06-10T01:14:36.515Z,99.99
2018-06-10T01:15:36.520Z,99.99
2018-06-10T01:16:36.523Z,99.99
2018-06-10T01:17:36.524Z,99.99
2018-06-10T01:18:36.523Z,99.99
2018-06-10T01:19:36.525Z,99.99
2018-06-10T01:20:36.523Z,99.99
2018-06-10T01:21:36.528Z,99.99
2018-06-10T01:22:36.530Z,99.99
2018-06-10T01:23:36.530Z,99.99
2018-06-10T01:24:36.529Z,99.99
2018-06-10T01:25:36.534Z,99.99
2018-06-10T01:26:36.533Z,99.99
2018-06-10T01:27:36.533Z,99.99
2018-06-10T01:28:36.535Z,99.99
2018-06-10T01:29:36.532Z,99.99
2018-06-10T01:30:36.540Z,99.99
2018-06-10T01:31:36.539Z,99.99
2018-06-10T01:32:36.544Z,99.99
2018-06-10T01:33:36.536Z,99.99
2018-06-10T01:34:36.540Z,99.99
2018-06-10T01:35:36.542Z,99.99
2018-06-10T01:36:36.544Z,99.99
2018-06-10T01:37:36.545Z,99.99
2018-06-10T01:38:36.541Z,99.99
2018-06-10T01:39:36.548Z,99.99
2018-06-10T01:40:36.544Z,99.99
2018-06-10T01:41:36.547Z,99.99
2018-06-10T01:42:36.555Z,99.99
2018-06-10T01:43:36.547Z,99.99
2018-06-10T01:44:36.554Z,99.99
2018-06-10T01:45:36.552Z,99.99
2018-06-10T01:46:36.559Z,99.99
2018-06-10T01:47:36.555Z,99.99
2018-06-10T01:48:36.551Z,99.99
2018-06-10T01:49:36.560Z,99.99
2018-06-10T01:50:36.560Z,99.99
2018-06-10T01:51:36.555Z,99.99
2018-06-10T01:52:36.571Z,99.99
2018-06-10T01:53:36.563Z,99.99
2018-06-10T01:54:36.563Z,99.99
2018-06-10T01:55:36.566Z,99.99
2018-06-10T01:56:36.566Z,99.99
2018-06-10T01:57:36.563Z,99.99
2018-06-10T01:58:36.563Z,99.99
2018-06-10T01:59:36.564Z,99.99
2018-06-10T02:00:36.569Z,99.99
2018-06-10T02:01:36.572Z,99.99
2018-06-10T02:02:36.571Z,99.99
2018-06-10T02:03:36.568Z,99.99
2018-06-10T02:04:36.574Z,99.99
2018-06-10T02:05:36.576Z,99.99
2018-06-10T02:06:36.577Z,99.99
2018-06-10T02:07:36.579Z,99.99
2018-06-10T02:08:36.574Z,99.99
2018-06-10T02:09:36.577Z,99.99
2018-06-10T02:10:36.586Z,99.99
2018-06-10T02:11:36.583Z,99.99
2018-06-10T02:12:36.585Z,99.99
2018-06-10T02:13:36.585Z,99.99
2018-06-10T02:14:36.594Z,99.99
2018-06-10T02:15:36.585Z,99.99
2018-06-10T02:16:36.584Z,99.99
2018-06-10T02:17:36.585Z,99.99
2018-06-10T02:18:36.582Z,99.99
2018-06-10T02:19:36.588Z,99.99
2018-06-10T02:20:36.592Z,99.99
2018-06-10T02:21:36.597Z,99.99
2018-06-10T02:22:36.593Z,99.99
2018-06-10T02:23:36.596Z,99.99
2018-06-10T02:24:36.591Z,99.99
2018-06-10T02:25:36.596Z,99.99
2018-06-10T02:26:36.601Z,99.99
2018-06-10T02:27:36.597Z,99.99
2018-06-10T02:28:36.595Z,99.99
2018-06-10T02:29:36.601Z,99.99
2018-06-10T02:30:36.601Z,99.99
2018-06-10T02:31:36.601Z,99.99
2018-06-10T02:32:36.601Z,99.99
2018-06-10T02:33:36.600Z,99.99
2018-06-10T02:34:36.605Z,99.99
2018-06-10T02:35:36.607Z,99.99
2018-06-10T02:36:36.608Z,99.99
2018-06-10T02:37:36.609Z,99.99
2018-06-10T02:38:36.609Z,99.99
2018-06-10T02:39:36.605Z,99.99
2018-06-10T02:40:36.611Z,99.99
2018-06-10T02:41:36.616Z,99.99
2018-06-10T02:42:36.615Z,99.99
2018-06-10T02:43:36.619Z,99.99
2018-06-10T02:44:36.618Z,99.99
2018-06-10T02:45:36.617Z,99.99
2018-06-10T02:46:36.615Z,99.99
2018-06-10T02:47:36.618Z,99.99
2018-06-10T02:48:36.620Z,99.99
2018-06-10T02:49:36.615Z,99.99
2018-06-10T02:50:36.621Z,99.99
2018-06-10T02:51:36.624Z,99.99
2018-06-10T02:52:36.623Z,99.99
2018-06-10T02:53:36.625Z,99.99
2018-06-10T02:54:36.622Z,99.99
2018-06-10T02:55:36.626Z,99.99
2018-06-10T02:56:36.629Z,99.99
2018-06-10T02:57:36.628Z,99.99
2018-06-10T02:58:36.622Z,99.99
2018-06-10T02:59:36.629Z,99.99
2018-06-10T03:00:36.631Z,99.99
2018-06-10T03:01:36.631Z,99.99
2018-06-10T03:02:36.633Z,99.99
2018-06-10T03:03:36.628Z,99.99
2018-06-10T03:04:36.637Z,99.99
2018-06-10T03:05:36.636Z,99.99
2018-06-10T03:06:36.634Z,99.99
2018-06-10T03:07:36.634Z,99.99
2018-06-10T03:08:36.639Z,99.99
2018-06-10T03:09:36.639Z,99.99
2018-06-10T03:10:36.639Z,99.99
2018-06-10T03:11:36.643Z,99.99
2018-06-10T03:12:36.646Z,99.99
2018-06-10T03:13:36.639Z,99.99
2018-06-10T03:14:36.639Z,99.99
2018-06-10T03:15:36.641Z,99.99
2018-06-10T03:16:36.645Z,99.99
2018-06-10T03:17:36.648Z,99.99
2018-06-10T03:18:36.644Z,99.99
2018-06-10T03:19:36.647Z,99.99
2018-06-10T03:20:36.644Z,99.99
2018-06-10T03:21:36.650Z,99.99
2018-06-10T03:22:36.651Z,99.99
2018-06-10T03:23:36.651Z,99.99
2018-06-10T03:24:36.655Z,99.99
2018-06-10T03:25:36.651Z,99.99
2018-06-10T03:26:36.686Z,99.99
2018-06-10T03:27:36.649Z,99.99
2018-06-10T03:28:36.653Z,99.99
2018-06-10T03:29:36.655Z,99.99
2018-06-10T03:30:36.650Z,99.99
2018-06-10T03:31:36.658Z,99.99
2018-06-10T03:32:36.658Z,99.99
2018-06-10T03:33:36.658Z,99.99
2018-06-10T03:34:36.659Z,99.99
2018-06-10T03:35:36.659Z,99.99
2018-06-10T03:36:36.656Z,99.99
2018-06-10T03:37:36.659Z,99.99
2018-06-10T03:38:36.665Z,99.99
2018-06-10T03:39:36.665Z,99.99
2018-06-10T03:40:36.660Z,99.99
2018-06-10T03:41:36.665Z,99.99
2018-06-10T03:42:36.666Z,99.99
2018-06-10T03:43:36.667Z,99.99
2018-06-10T03:44:36.666Z,99.99
2018-06-10T03:45:36.667Z,99.99
2018-06-10T03:46:36.668Z,99.99
2018-06-10T03:47:36.671Z,99.99
2018-06-10T03:48:36.671Z,99.99
2018-06-10T03:49:36.671Z,99.99
2018-06-10T03:50:36.669Z,99.99
2018-06-10T03:51:36.673Z,99.99
2018-06-10T03:52:36.676Z,99.99
2018-06-10T03:53:36.680Z,99.99
2018-06-10T03:54:36.671Z,99.99
2018-06-10T03:55:36.677Z,99.99
2018-06-10T03:56:36.678Z,99.99
2018-06-10T03:57:36.678Z,99.99
2018-06-10T03:58:36.673Z,99.99
2018-06-10T03:59:36.675Z,99.99
2018-06-10T04:00:36.680Z,99.99
2018-06-10T04:01:36.676Z,99.99
2018-06-10T04:02:36.683Z,99.99
2018-06-10T04:03:36.681Z,99.99
2018-06-10T04:04:36.685Z,99.99
2018-06-10T04:05:36.684Z,99.99
2018-06-10T04:06:36.685Z,99.99
2018-06-10T04:07:36.683Z,99.99
2018-06-10T04:08:36.681Z,99.99
2018-06-10T04:09:36.691Z,99.99
2018-06-10T04:10:36.689Z,99.99
2018-06-10T04:11:36.685Z,99.99
2018-06-10T04:12:36.691Z,99.99
2018-06-10T04:13:36.691Z,99.99
2018-06-10T04:14:36.694Z,99.99
2018-06-10T04:15:36.689Z,99.99
2018-06-10T04:16:36.695Z,99.99
2018-06-10T04:17:36.690Z,99.99
2018-06-10T04:18:36.690Z,99.99
2018-06-10T04:19:36.698Z,99.99
2018-06-10T04:20:36.697Z,99.99
2018-06-10T04:21:36.693Z,99.99
2018-06-10T04:22:36.767Z,99.99
2018-06-10T04:23:36.703Z,99.99
2018-06-10T04:24:36.702Z,99.99
2018-06-10T04:25:36.705Z,99.99
2018-06-10T04:26:36.697Z,99.99
2018-06-10T04:27:36.698Z,99.99
2018-06-10T04:28:36.700Z,99.99
2018-06-10T04:29:36.709Z,99.99
2018-06-10T04:30:36.709Z,99.99
2018-06-10T04:31:36.709Z,99.99
2018-06-10T04:32:36.708Z,99.99
2018-06-10T04:33:36.704Z,99.99
2018-06-10T04:34:36.715Z,99.99
2018-06-10T04:35:36.715Z,99.99
2018-06-10T04:36:36.713Z,99.99
2018-06-10T04:37:36.713Z,99.99
2018-06-10T04:38:36.716Z,99.99
2018-06-10T04:39:36.714Z,99.99
2018-06-10T04:40:36.714Z,99.99
2018-06-10T04:41:36.711Z,99.99
2018-06-10T04:42:36.718Z,99.99
2018-06-10T04:43:36.717Z,99.99
2018-06-10T04:44:36.729Z,99.99
2018-06-10T04:45:36.720Z,99.99
2018-06-10T04:46:36.720Z,99.99
2018-06-10T04:47:36.722Z,99.99
2018-06-10T04:48:36.725Z,99.99
2018-06-10T04:49:36.725Z,99.99
2018-06-10T04:50:36.726Z,99.99
2018-06-10T04:51:36.726Z,99.99
2018-06-10T04:52:36.729Z,99.99
2018-06-10T04:53:36.729Z,99.99
2018-06-10T04:54:36.727Z,99.99
2018-06-10T04:55:36.729Z,99.99
2018-06-10T04:56:36.732Z,99.99
2018-06-10T04:57:36.731Z,99.99
2018-06-10T04:58:36.733Z,99.99
2018-06-10T04:59:36.728Z,99.99
2018-06-10T05:00:36.735Z,99.99
2018-06-10T05:01:36.735Z,99.99
2018-06-10T05:02:36.736Z,99.99
2018-06-10T05:03:36.734Z,99.99
2018-06-10T05:04:36.738Z,99.99
2018-06-10T05:05:36.740Z,99.99
2018-06-10T05:06:36.741Z,99.99
2018-06-10T05:07:36.742Z,99.99
2018-06-10T05:08:36.747Z,99.99
2018-06-10T05:09:36.744Z,99.99
2018-06-10T05:10:36.744Z,99.99
2018-06-10T05:11:36.746Z,99.99
2018-06-10T05:12:36.742Z,99.99
2018-06-10T05:13:36.744Z,99.99
2018-06-10T05:14:36.753Z,99.99
2018-06-10T05:15:36.748Z,99.99
2018-06-10T05:16:36.750Z,99.99
2018-06-10T05:17:36.752Z,99.99
2018-06-10T05:18:36.753Z,99.99
2018-06-10T05:19:36.790Z,99.99
2018-06-10T05:20:36.749Z,99.99
2018-06-10T05:21:36.752Z,99.99
2018-06-10T05:22:36.755Z,99.99
2018-06-10T05:23:36.757Z,99.99
2018-06-10T05:24:36.757Z,99.99
2018-06-10T05:25:36.760Z,99.99
2018-06-10T05:26:36.756Z,99.99
2018-06-10T05:27:36.758Z,99.99
2018-06-10T05:28:36.764Z,99.99
2018-06-10T05:29:36.774Z,99.99
2018-06-10T05:30:36.764Z,99.99
2018-06-10T05:31:36.760Z,99.99
2018-06-10T05:32:36.767Z,99.99
2018-06-10T05:33:36.767Z,99.99
2018-06-10T05:34:36.770Z,99.99
2018-06-10T05:35:36.768Z,99.99
2018-06-10T05:36:36.770Z,99.99
2018-06-10T05:37:36.771Z,99.99
2018-06-10T05:38:36.772Z,99.99
2018-06-10T05:39:36.774Z,99.99
2018-06-10T05:40:36.778Z,99.99
2018-06-10T05:41:36.772Z,99.99
2018-06-10T05:42:36.779Z,99.99
2018-06-10T05:43:36.778Z,99.99
2018-06-10T05:44:36.780Z,99.99
2018-06-10T05:45:36.782Z,99.99
2018-06-10T05:46:36.782Z,99.99
2018-06-10T05:47:36.783Z,99.99
2018-06-10T05:48:36.785Z,99.99
2018-06-10T05:49:36.785Z,99.99
2018-06-10T05:50:36.786Z,99.99
2018-06-10T05:51:36.784Z,99.99
2018-06-10T05:52:36.790Z,99.99
2018-06-10T05:53:36.791Z,99.99
2018-06-10T05:54:36.793Z,99.99
2018-06-10T05:55:36.791Z,99.99
2018-06-10T05:56:36.794Z,99.99
2018-06-10T05:57:36.791Z,99.99
2018-06-10T05:58:36.800Z,99.99
2018-06-10T05:59:36.801Z,99.99
2018-06-10T06:00:36.802Z,99.99
2018-06-10T06:01:36.801Z,99.99
2018-06-10T06:02:36.805Z,99.99
2018-06-10T06:03:36.805Z,99.99
2018-06-10T06:04:36.803Z,99.99
2018-06-10T06:05:36.803Z,99.99
2018-06-10T06:06:36.809Z,99.99
2018-06-10T06:07:36.817Z,99.99
2018-06-10T06:08:36.816Z,99.99
2018-06-10T06:09:36.815Z,99.99
2018-06-10T06:10:36.815Z,99.99
2018-06-10T06:11:36.813Z,99.99
2018-06-10T06:12:36.819Z,99.99
2018-06-10T06:13:36.815Z,99.99
2018-06-10T06:14:36.821Z,99.99
2018-06-10T06:15:36.831Z,99.99
2018-06-10T06:16:36.825Z,99.99
2018-06-10T06:17:36.820Z,99.99
2018-06-10T06:18:36.828Z,99.99
2018-06-10T06:19:36.828Z,99.99
2018-06-10T06:20:36.832Z,99.99
2018-06-10T06:21:36.827Z,99.99
2018-06-10T06:22:36.836Z,99.99
2018-06-10T06:23:36.835Z,99.99
2018-06-10T06:24:36.840Z,99.99
2018-06-10T06:25:36.838Z,99.99
2018-06-10T06:26:36.840Z,99.99
2018-06-10T06:27:36.843Z,99.99
2018-06-10T06:28:36.841Z,99.99
2018-06-10T06:29:36.845Z,99.99
2018-06-10T06:30:36.844Z,99.99
2018-06-10T06:31:36.847Z,99.99
2018-06-10T06:32:36.848Z,99.99
2018-06-10T06:33:36.848Z,99.99
2018-06-10T06:34:36.852Z,99.99
2018-06-10T06:35:36.853Z,99.99
2018-06-10T06:36:36.867Z,99.99
2018-06-10T06:37:36.859Z,99.99
2018-06-10T06:38:36.856Z,99.99
2018-06-10T06:39:36.865Z,99.99
2018-06-10T06:40:36.854Z,99.99
2018-06-10T06:41:36.856Z,99.99
2018-06-10T06:42:36.860Z,99.99
2018-06-10T06:43:36.865Z,99.99
2018-06-10T06:44:36.869Z,99.99
2018-06-10T06:45:36.867Z,99.99
2018-06-10T06:46:36.869Z,99.99
2018-06-10T06:47:36.869Z,99.99
2018-06-10T06:48:36.871Z,99.99
2018-06-10T06:49:36.870Z,99.99
2018-06-10T06:50:36.871Z,99.99
2018-06-10T06:51:36.876Z,99.99
2018-06-10T06:52:36.932Z,99.99
2018-06-10T06:53:36.877Z,99.99
2018-06-10T06:54:36.881Z,99.99
2018-06-10T06:55:36.880Z,99.99
2018-06-10T06:56:36.883Z,99.99
2018-06-10T06:57:36.880Z,99.99
2018-06-10T06:58:36.886Z,99.99
2018-06-10T06:59:36.887Z,99.99
2018-06-10T07:00:36.888Z,99.99
2018-06-10T07:01:36.890Z,99.99
2018-06-10T07:02:36.885Z,99.99
2018-06-10T07:03:36.891Z,99.99
2018-06-10T07:04:36.903Z,99.99
2018-06-10T07:05:36.896Z,99.99
2018-06-10T07:06:36.895Z,99.99
2018-06-10T07:07:36.898Z,99.99
2018-06-10T07:08:36.900Z,99.99
2018-06-10T07:09:36.901Z,99.99
2018-06-10T07:10:36.903Z,99.99
2018-06-10T07:11:36.904Z,99.99
2018-06-10T07:12:36.904Z,99.99
2018-06-10T07:13:36.906Z,99.99
2018-06-10T07:14:36.910Z,99.99
2018-06-10T07:15:36.911Z,99.99
2018-06-10T07:16:36.911Z,99.99
2018-06-10T07:17:36.915Z,99.99
2018-06-10T07:18:36.911Z,99.99
2018-06-10T07:19:36.921Z,99.99
2018-06-10T07:20:36.918Z,99.99
2018-06-10T07:21:36.917Z,99.99
2018-06-10T07:22:37.565Z,99.99
2018-06-10T07:23:36.974Z,99.99
2018-06-10T07:24:36.927Z,99.99
2018-06-10T07:25:36.928Z,99.99
2018-06-10T07:26:36.931Z,99.99
2018-06-10T07:27:36.933Z,99.99
2018-06-10T07:28:36.928Z,99.99
2018-06-10T07:29:36.931Z,99.99
2018-06-10T07:30:36.936Z,99.99
2018-06-10T07:31:36.930Z,99.99
2018-06-10T07:32:36.936Z,99.99
2018-06-10T07:33:36.941Z,99.99
2018-06-10T07:34:36.940Z,99.99
2018-06-10T07:35:36.946Z,99.99
2018-06-10T07:36:36.941Z,99.99
2018-06-10T07:37:36.945Z,99.99
2018-06-10T07:38:36.944Z,99.99
2018-06-10T07:39:36.947Z,99.99
2018-06-10T07:40:36.995Z,99.99
2018-06-10T07:41:36.947Z,99.99
2018-06-10T07:42:36.951Z,99.99
2018-06-10T07:43:37.576Z,99.99
2018-06-10T07:44:36.956Z,99.99
2018-06-10T07:45:36.962Z,99.99
2018-06-10T07:46:36.957Z,99.99
2018-06-10T07:47:36.962Z,99.99
2018-06-10T07:48:36.968Z,99.99
2018-06-10T07:49:36.968Z,99.99
2018-06-10T07:50:36.966Z,99.99
2018-06-10T07:51:36.969Z,99.99
2018-06-10T07:52:36.974Z,99.99
2018-06-10T07:53:36.975Z,99.99
2018-06-10T07:54:36.975Z,99.99
2018-06-10T07:55:36.991Z,99.99
2018-06-10T07:56:36.977Z,99.99
2018-06-10T07:57:36.981Z,99.99
2018-06-10T07:58:36.979Z,99.99
2018-06-10T07:59:36.982Z,99.99
2018-06-10T08:00:36.990Z,99.99
2018-06-10T08:01:36.988Z,99.99
2018-06-10T08:02:36.997Z,99.99
2018-06-10T08:03:36.993Z,99.99
2018-06-10T08:04:36.991Z,99.99
2018-06-10T08:05:37.000Z,99.99
2018-06-10T08:06:36.997Z,99.99
2018-06-10T08:07:36.999Z,99.99
2018-06-10T08:08:37.003Z,99.99
2018-06-10T08:09:37.004Z,99.99
2018-06-10T08:10:37.018Z,99.99
2018-06-10T08:11:37.008Z,99.99
2018-06-10T08:12:37.010Z,99.99
2018-06-10T08:13:37.011Z,99.99
2018-06-10T08:14:37.010Z,99.99
2018-06-10T08:15:37.016Z,99.99
2018-06-10T08:16:37.016Z,99.99
2018-06-10T08:17:37.019Z,99.99
2018-06-10T08:18:37.037Z,99.99
2018-06-10T08:19:37.020Z,99.99
2018-06-10T08:20:37.025Z,99.99
2018-06-10T08:21:37.027Z,99.99
2018-06-10T08:22:37.030Z,99.99
2018-06-10T08:23:37.029Z,99.99
2018-06-10T08:24:37.029Z,99.99
2018-06-10T08:25:37.032Z,99.99
2018-06-10T08:26:37.038Z,99.99
2018-06-10T08:27:37.040Z,99.99
2018-06-10T08:28:37.045Z,99.99
2018-06-10T08:29:37.048Z,99.99
2018-06-10T08:30:37.049Z,99.99
2018-06-10T08:31:37.046Z,99.99
2018-06-10T08:32:37.046Z,99.99
2018-06-10T08:33:37.053Z,99.99
2018-06-10T08:34:37.055Z,99.99
2018-06-10T08:35:37.055Z,99.99
2018-06-10T08:36:37.060Z,99.99
2018-06-10T08:37:37.062Z,99.99
2018-06-10T08:38:37.059Z,99.41
2018-06-10T08:39:37.066Z,96.03
2018-06-10T08:40:37.066Z,99.99
2018-06-10T08:41:37.071Z,99.99
2018-06-10T08:42:37.069Z,98.39
2018-06-10T08:43:37.074Z,99.55
2018-06-10T08:44:37.076Z,99.99
2018-06-10T08:45:37.078Z,99.99
2018-06-10T08:46:37.076Z,97.96
2018-06-10T08:47:37.077Z,95.68
2018-06-10T08:48:37.086Z,96.99
2018-06-10T08:49:37.089Z,98.73
2018-06-10T08:50:37.124Z,97.38
2018-06-10T08:51:37.097Z,95.93
2018-06-10T08:52:37.096Z,95.64
2018-06-10T08:53:37.100Z,93.32
2018-06-10T08:54:37.101Z,96.51
2018-06-10T08:55:37.101Z,94.18
2018-06-10T08:56:37.105Z,98.00
2018-06-10T08:57:37.106Z,95.68
2018-06-10T08:58:37.106Z,92.40
2018-06-10T08:59:37.113Z,94.43
2018-06-10T09:00:37.117Z,93.26
2018-06-10T09:01:37.117Z,94.33
2018-06-10T09:02:37.145Z,96.36
2018-06-10T09:03:37.123Z,95.20
2018-06-10T09:04:37.121Z,94.81
2018-06-10T09:05:37.127Z,93.75
2018-06-10T09:06:37.132Z,95.59
2018-06-10T09:07:37.132Z,94.43
2018-06-10T09:08:37.213Z,93.75
2018-06-10T09:09:37.143Z,90.84
2018-06-10T09:10:37.140Z,90.36
2018-06-10T09:11:37.142Z,91.62
2018-06-10T09:12:37.146Z,92.68
2018-06-10T09:13:37.144Z,93.36
2018-06-10T09:14:37.145Z,96.17
2018-06-10T09:15:37.154Z,96.02
2018-06-10T09:16:37.158Z,97.67
2018-06-10T09:17:37.159Z,96.80
2018-06-10T09:18:37.157Z,96.60
2018-06-10T09:19:37.160Z,94.96
2018-06-10T09:20:37.169Z,96.80
2018-06-10T09:21:37.171Z,94.96
2018-06-10T09:22:37.174Z,96.02
2018-06-10T09:23:37.177Z,97.08
2018-06-10T09:24:37.176Z,95.73
2018-06-10T09:25:37.179Z,95.73
2018-06-10T09:26:37.184Z,95.73
2018-06-10T09:27:37.187Z,95.01
2018-06-10T09:28:37.187Z,95.59
2018-06-10T09:29:37.200Z,96.26
2018-06-10T09:30:37.235Z,94.81
2018-06-10T09:31:37.202Z,96.55
2018-06-10T09:32:37.205Z,97.62
2018-06-10T09:33:37.208Z,94.23
2018-06-10T09:34:37.213Z,94.43
2018-06-10T09:35:37.211Z,96.60
2018-06-10T09:36:37.220Z,94.76
2018-06-10T09:37:37.218Z,93.89
2018-06-10T09:38:37.218Z,95.83
2018-06-10T09:39:37.220Z,96.60
2018-06-10T09:40:37.224Z,93.99
2018-06-10T09:41:37.231Z,94.67
2018-06-10T09:42:37.232Z,92.29
2018-06-10T09:43:37.235Z,90.21
2018-06-10T09:44:37.240Z,91.47
2018-06-10T09:45:37.243Z,91.38
2018-06-10T09:46:37.247Z,90.45
2018-06-10T09:47:37.251Z,92.00
2018-06-10T09:48:37.252Z,88.90
2018-06-10T09:49:37.255Z,90.45
2018-06-10T09:50:37.257Z,90.36
2018-06-10T09:51:37.257Z,89.87
2018-06-10T09:52:37.259Z,89.09
2018-06-10T09:53:37.261Z,88.51
2018-06-10T09:54:37.263Z,91.42
2018-06-10T09:55:37.395Z,91.52
2018-06-10T09:56:37.272Z,90.55
2018-06-10T09:57:37.275Z,92.68
2018-06-10T09:58:37.280Z,95.58
2018-06-10T09:59:37.287Z,93.55
2018-06-10T10:00:37.282Z,93.26
2018-06-10T10:01:37.289Z,90.94
2018-06-10T10:02:37.294Z,91.13
2018-06-10T10:03:37.294Z,90.64
2018-06-10T10:04:37.294Z,90.55
2018-06-10T10:05:37.297Z,89.19
2018-06-10T10:06:37.305Z,89.58
2018-06-10T10:07:37.312Z,90.16
2018-06-10T10:08:37.307Z,89.23
2018-06-10T10:09:37.315Z,89.53
2018-06-10T10:10:37.312Z,88.17
2018-06-10T10:11:37.321Z,87.30
2018-06-10T10:12:37.323Z,87.40
2018-06-10T10:13:37.328Z,85.46
2018-06-10T10:14:37.363Z,84.78
2018-06-10T10:15:37.336Z,88.70
2018-06-10T10:16:37.340Z,84.72
2018-06-10T10:17:37.341Z,84.82
2018-06-10T10:18:37.343Z,83.17
2018-06-10T10:19:37.346Z,85.30
2018-06-10T10:20:37.351Z,88.16
2018-06-10T10:21:37.352Z,86.02
2018-06-10T10:22:37.357Z,80.79
2018-06-10T10:23:37.360Z,79.82
2018-06-10T10:24:37.361Z,80.60
2018-06-10T10:25:37.418Z,79.68
2018-06-10T10:26:37.370Z,80.40
2018-06-10T10:27:37.372Z,80.98
2018-06-10T10:28:37.375Z,80.26
2018-06-10T10:29:37.380Z,81.66
2018-06-10T10:30:37.381Z,78.56
2018-06-10T10:31:37.386Z,78.94
2018-06-10T10:32:37.389Z,79.82
2018-06-10T10:33:37.391Z,79.14
2018-06-10T10:34:37.397Z,78.94
2018-06-10T10:35:37.395Z,81.37
2018-06-10T10:36:37.403Z,79.47
2018-06-10T10:37:37.402Z,79.12
2018-06-10T10:38:37.518Z,81.55
2018-06-10T10:39:37.405Z,76.15
2018-06-10T10:40:37.414Z,77.12
2018-06-10T10:41:37.412Z,77.94
2018-06-10T10:42:37.415Z,77.02
2018-06-10T10:43:37.415Z,73.97
2018-06-10T10:44:37.419Z,74.37
2018-06-10T10:45:37.424Z,77.57
2018-06-10T10:46:38.137Z,75.24
2018-06-10T10:47:37.426Z,78.09
2018-06-10T10:48:37.432Z,78.87
2018-06-10T10:49:37.432Z,75.76
2018-06-10T10:50:37.435Z,73.43
2018-06-10T10:51:37.434Z,73.14
2018-06-10T10:52:37.438Z,76.05
2018-06-10T10:53:37.445Z,76.57
2018-06-10T10:54:37.448Z,77.15
2018-06-10T10:55:37.450Z,74.34
2018-06-10T10:56:37.455Z,75.54
2018-06-10T10:57:37.453Z,74.73
2018-06-10T10:58:37.461Z,75.02
2018-06-10T10:59:37.462Z,73.11
2018-06-10T11:00:37.469Z,73.30
2018-06-10T11:01:37.468Z,75.19
2018-06-10T11:02:37.469Z,73.05
2018-06-10T11:03:37.478Z,71.72
2018-06-10T11:04:37.482Z,73.38
2018-06-10T11:05:37.485Z,71.82
2018-06-10T11:06:37.487Z,71.23
2018-06-10T11:07:37.484Z,70.95
2018-06-10T11:08:37.491Z,69.29
2018-06-10T11:09:37.496Z,68.61
2018-06-10T11:10:37.498Z,72.31
2018-06-10T11:11:37.501Z,70.56
2018-06-10T11:12:37.505Z,67.99
2018-06-10T11:13:37.509Z,66.14
2018-06-10T11:14:37.519Z,66.63
2018-06-10T11:15:37.515Z,65.75
2018-06-10T11:16:37.522Z,63.42
2018-06-10T11:17:37.523Z,65.63
2018-06-10T11:18:37.531Z,67.28
2018-06-10T11:19:37.530Z,67.63
2018-06-10T11:20:37.534Z,68.41
2018-06-10T11:21:37.541Z,68.84
2018-06-10T11:22:37.548Z,69.13
2018-06-10T11:23:37.545Z,71.01
2018-06-10T11:24:37.553Z,69.55
2018-06-10T11:25:37.553Z,69.20
2018-06-10T11:26:37.556Z,70.17
2018-06-10T11:27:37.562Z,71.27
2018-06-10T11:28:37.565Z,69.56
2018-06-10T11:29:37.565Z,70.56
2018-06-10T11:30:37.576Z,66.99
2018-06-10T11:31:37.579Z,64.84
2018-06-10T11:32:37.579Z,63.60
2018-06-10T11:33:37.583Z,62.79
2018-06-10T11:34:37.594Z,63.60
2018-06-10T11:35:37.595Z,62.79
2018-06-10T11:36:37.600Z,62.70
2018-06-10T11:37:37.606Z,64.75
2018-06-10T11:38:37.609Z,63.31
2018-06-10T11:39:37.614Z,67.02
2018-06-10T11:40:37.622Z,66.37
2018-06-10T11:41:37.630Z,64.71
2018-06-10T11:42:37.704Z,64.22
2018-06-10T11:43:37.635Z,63.44
2018-06-10T11:44:37.644Z,64.22
2018-06-10T11:45:37.653Z,61.76
2018-06-10T11:46:37.657Z,62.63
2018-06-10T11:47:37.662Z,59.31
2018-06-10T11:48:37.668Z,58.97
2018-06-10T11:49:37.671Z,61.11
2018-06-10T11:50:37.683Z,62.89
2018-06-10T11:51:37.689Z,61.33
2018-06-10T11:52:37.689Z,64.09
2018-06-10T11:53:37.696Z,62.56
2018-06-10T11:54:37.706Z,62.50
2018-06-10T11:55:37.711Z,62.23
2018-06-10T11:56:37.719Z,61.23
2018-06-10T11:57:37.725Z,59.44
2018-06-10T11:58:37.729Z,61.62
2018-06-10T11:59:37.738Z,59.34
2018-06-10T12:00:37.746Z,61.62
2018-06-10T12:01:37.755Z,60.84
2018-06-10T12:02:37.759Z,61.43
2018-06-10T12:03:37.766Z,61.40
2018-06-10T12:04:37.772Z,63.38
2018-06-10T12:05:37.782Z,61.13
2018-06-10T12:06:37.785Z,61.06
2018-06-10T12:07:37.793Z,59.43
2018-06-10T12:08:37.799Z,57.45
2018-06-10T12:09:37.800Z,56.93
2018-06-10T12:10:37.830Z,57.49
2018-06-10T12:11:37.819Z,57.85
2018-06-10T12:12:37.826Z,58.95
2018-06-10T12:13:37.831Z,58.17
2018-06-10T12:14:37.835Z,57.26
2018-06-10T12:15:37.851Z,59.09
2018-06-10T12:16:37.864Z,59.19
2018-06-10T12:17:37.862Z,60.03
2018-06-10T12:18:37.862Z,60.00
2018-06-10T12:19:37.877Z,60.20
2018-06-10T12:20:37.879Z,62.47
2018-06-10T12:21:37.890Z,62.60
2018-06-10T12:22:37.985Z,58.73
2018-06-10T12:23:37.899Z,61.85
2018-06-10T12:24:37.905Z,57.56
2018-06-10T12:25:37.912Z,58.76
2018-06-10T12:26:37.919Z,58.56
2018-06-10T12:27:37.924Z,57.98
2018-06-10T12:28:37.929Z,58.34
2018-06-10T12:29:37.938Z,59.48
2018-06-10T12:30:37.943Z,59.26
2018-06-10T12:31:37.950Z,60.78
2018-06-10T12:32:37.957Z,59.52
2018-06-10T12:33:37.960Z,58.28
2018-06-10T12:34:37.973Z,56.85
2018-06-10T12:35:37.983Z,57.34
2018-06-10T12:36:37.984Z,58.31
2018-06-10T12:37:37.988Z,59.87
2018-06-10T12:38:37.992Z,62.56
2018-06-10T12:39:38.001Z,62.50
2018-06-10T12:40:38.006Z,56.86
2018-06-10T12:41:38.011Z,57.45
2018-06-10T12:42:38.014Z,56.74
2018-06-10T12:43:38.030Z,55.44
2018-06-10T12:44:38.032Z,57.88
2018-06-10T12:45:38.041Z,57.91
2018-06-10T12:46:38.042Z,56.86
2018-06-10T12:47:38.055Z,54.81
2018-06-10T12:48:38.054Z,55.40
2018-06-10T12:49:38.061Z,54.52
2018-06-10T12:50:38.069Z,55.00
2018-06-10T12:51:38.072Z,54.44
2018-06-10T12:52:38.080Z,53.19